^^
Station Historical Data
Daily Summary for July 13, 2018 Units:  English    Metric   Both
« Previous Day
Next Day »
Daily Weekly Monthly Yearly Custom
  High: Low: Average:
Temperature: TemperatureF °F 78.7 °F 87.2 °F
Dew Point: DewpointF °F 66.4 °F 69.5 °F
Humidity: Humidity% 37% 57%
Wind Speed: WindSpeedMPHmph 0.0mph 4.2mph
Wind Gust: WindSpeedGustMPHmph - -
Wind- - South
Pressure: PressureIn in 29.84 in -
Precipitation: 0.00 in    
Historical Graphs
 
 
Tabular Data for July 13, 2018
Time Temperature Dew Point Pressure Wind Wind Speed Wind Gust Humidity Rainfall Rate (Hourly)
TemperatureF °F DewpointF °F PressureIn in Calm     Humidity% HourlyPrecipIn in
00:04 84.1 °F 70.1 °F 29.91 in Calm     63% 0.00 in
00:09 83.9 °F 70.4 °F 29.91 in Calm     64% 0.00 in
00:14 83.7 °F 70.2 °F 29.91 in Calm     64% 0.00 in
00:19 83.6 °F 70.1 °F 29.92 in Calm     64% 0.00 in
00:24 83.5 °F 70.0 °F 29.92 in Calm     64% 0.00 in
00:29 83.4 °F 70.4 °F 29.92 in Calm     65% 0.00 in
00:32 83.3 °F 70.3 °F 29.92 in Calm     65% 0.00 in
00:39 83.0 °F 70.5 °F 29.92 in Calm     66% 0.00 in
00:44 82.9 °F 70.4 °F 29.92 in Calm     66% 0.00 in
00:49 82.7 °F 70.2 °F 29.92 in Calm     66% 0.00 in
00:54 82.5 °F 70.4 °F 29.93 in Calm     67% 0.00 in
00:59 82.3 °F 70.2 °F 29.92 in Calm     67% 0.00 in
01:04 82.1 °F 70.5 °F 29.92 in Calm     68% 0.00 in
01:09 81.9 °F 70.3 °F 29.92 in Calm     68% 0.00 in
01:14 81.7 °F 70.5 °F 29.92 in Calm     69% 0.00 in
01:19 81.6 °F 70.4 °F 29.92 in Calm     69% 0.00 in
01:24 81.4 °F 70.2 °F 29.92 in Calm     69% 0.00 in
01:29 81.3 °F 70.6 °F 29.92 in Calm     70% 0.00 in
01:34 81.2 °F 70.5 °F 29.92 in Calm     70% 0.00 in
01:39 81.1 °F 70.4 °F 29.92 in Calm     70% 0.00 in
01:44 81.1 °F 70.4 °F 29.92 in Calm     70% 0.00 in
01:49 81.0 °F 70.7 °F 29.91 in Calm     71% 0.00 in
01:54 80.8 °F 70.5 °F 29.91 in Calm     71% 0.00 in
01:59 80.6 °F 70.3 °F 29.91 in Calm     71% 0.00 in
02:04 80.4 °F 70.1 °F 29.91 in Calm     71% 0.00 in
02:09 80.2 °F 70.4 °F 29.92 in Calm     72% 0.00 in
02:14 80.0 °F 70.6 °F 29.92 in Calm     73% 0.00 in
02:19 79.8 °F 70.0 °F 29.92 in Calm     72% 0.00 in
02:24 79.7 °F 70.3 °F 29.92 in Calm     73% 0.00 in
02:29 79.5 °F 70.1 °F 29.92 in Calm     73% 0.00 in
02:34 79.4 °F 70.0 °F 29.92 in Calm     73% 0.00 in
02:39 79.3 °F 69.5 °F 29.92 in Calm     72% 0.00 in
02:44 79.3 °F 69.5 °F 29.92 in Calm     72% 0.00 in
02:49 79.2 °F 70.6 °F 29.92 in Calm     75% 0.00 in
02:54 79.0 °F 70.4 °F 29.92 in Calm     75% 0.00 in
02:59 78.8 °F 70.6 °F 29.92 in Calm     76% 0.00 in
03:04 78.8 °F 69.8 °F 29.91 in SE 1.2 mph 0.4 mph 74% 0.00 in
03:09 78.9 °F 69.9 °F 29.91 in SE 2.3 mph 0.6 mph 74% 0.00 in
03:14 79.0 °F 70.0 °F 29.91 in SE 1.2 mph 0.5 mph 74% 0.00 in
03:19 79.0 °F 70.0 °F 29.92 in SE 1.2 mph 0.6 mph 74% 0.00 in
03:24 79.0 °F 69.6 °F 29.91 in SE 1.2 mph 0.6 mph 73% 0.00 in
03:29 79.1 °F 69.7 °F 29.92 in SE 1.2 mph 0.7 mph 73% 0.00 in
03:34 79.2 °F 69.8 °F 29.92 in SE 2.0 mph 0.8 mph 73% 0.00 in
03:39 79.4 °F 69.6 °F 29.91 in South 1.2 mph 0.4 mph 72% 0.00 in
03:44 79.6 °F 69.4 °F 29.91 in South 3.5 mph 1.5 mph 71% 0.00 in
03:49 79.7 °F 69.5 °F 29.91 in South 1.2 mph 1.0 mph 71% 0.00 in
03:54 79.8 °F 69.6 °F 29.91 in South 3.5 mph 1.9 mph 71% 0.00 in
03:59 79.8 °F 69.6 °F 29.91 in South 2.3 mph 0.9 mph 71% 0.00 in
04:04 79.9 °F 69.7 °F 29.91 in SE 1.2 mph 1.1 mph 71% 0.00 in
04:09 79.9 °F 69.7 °F 29.91 in South 2.3 mph 0.7 mph 71% 0.00 in
04:14 79.9 °F 69.7 °F 29.91 in South 3.5 mph 1.4 mph 71% 0.00 in
04:19 79.9 °F 69.7 °F 29.91 in South 2.3 mph 0.4 mph 71% 0.00 in
04:24 79.8 °F 69.6 °F 29.91 in South 3.5 mph 0.7 mph 71% 0.00 in
04:29 79.8 °F 69.1 °F 29.91 in SSW 2.3 mph 0.7 mph 70% 0.00 in
04:34 79.9 °F 69.2 °F 29.91 in SSE 3.5 mph 1.1 mph 70% 0.00 in
04:39 80.0 °F 69.3 °F 29.91 in South 3.5 mph 2.7 mph 70% 0.00 in
04:44 80.1 °F 69.0 °F 29.91 in SSW 4.6 mph 1.7 mph 69% 0.00 in
04:48 80.2 °F 69.1 °F 29.91 in SE 3.5 mph 2.3 mph 69% 0.00 in
04:54 80.4 °F 68.9 °F 29.91 in South 3.5 mph 1.9 mph 68% 0.00 in
04:59 80.6 °F 69.1 °F 29.91 in South 2.3 mph 1.8 mph 68% 0.00 in
05:04 80.8 °F 68.8 °F 29.91 in South 3.5 mph 2.3 mph 67% 0.00 in
05:09 80.8 °F 68.8 °F 29.91 in South 4.6 mph 2.5 mph 67% 0.00 in
05:14 80.8 °F 68.8 °F 29.91 in SSE 6.9 mph 1.8 mph 67% 0.00 in
05:19 80.8 °F 68.8 °F 29.91 in SSE 4.6 mph 2.7 mph 67% 0.00 in
05:24 80.8 °F 68.8 °F 29.91 in South 3.5 mph 1.0 mph 67% 0.00 in
05:29 80.7 °F 68.7 °F 29.91 in SSW 9.2 mph 3.8 mph 67% 0.00 in
05:34 80.5 °F 69.0 °F 29.91 in South 4.6 mph 2.4 mph 68% 0.00 in
05:39 80.5 °F 69.0 °F 29.91 in South 3.5 mph 0.9 mph 68% 0.00 in
05:44 80.3 °F 68.8 °F 29.91 in South 4.6 mph 2.4 mph 68% 0.00 in
05:49 80.1 °F 69.0 °F 29.91 in South 6.0 mph 4.7 mph 69% 0.00 in
05:54 79.9 °F 68.8 °F 29.90 in SSW 5.0 mph 1.8 mph 69% 0.00 in
05:59 79.8 °F 69.1 °F 29.91 in South 4.6 mph 3.1 mph 70% 0.00 in
06:04 79.6 °F 69.0 °F 29.91 in SE 4.6 mph 2.7 mph 70% 0.00 in
06:09 79.4 °F 69.2 °F 29.91 in South 3.5 mph 0.7 mph 71% 0.00 in
06:13 79.4 °F 69.2 °F 29.91 in South 3.5 mph 1.9 mph 71% 0.00 in
06:19 79.3 °F 69.1 °F 29.91 in SSW 2.3 mph 0.8 mph 71% 0.00 in
06:24 79.2 °F 69.0 °F 29.91 in South 3.5 mph 2.3 mph 71% 0.00 in
06:29 79.1 °F 69.3 °F 29.91 in South 5.8 mph 1.2 mph 72% 0.00 in
06:34 79.0 °F 69.2 °F 29.92 in Calm   0.6 mph 72% 0.00 in
06:39 78.8 °F 69.4 °F 29.92 in Calm   1.7 mph 73% 0.00 in
06:44 78.7 °F 69.3 °F 29.92 in SSE 4.0 mph 1.0 mph 73% 0.00 in
06:49 78.8 °F 69.4 °F 29.92 in SSE 3.0 mph 1.3 mph 73% 0.00 in
06:54 78.8 °F 69.4 °F 29.92 in South 3.5 mph 3.1 mph 73% 0.00 in
06:59 78.8 °F 69.4 °F 29.93 in South 4.6 mph 1.9 mph 73% 0.00 in
07:04 78.9 °F 69.5 °F 29.93 in SSE 2.0 mph 1.0 mph 73% 0.00 in
07:09 79.1 °F 69.7 °F 29.93 in South 3.0 mph 1.9 mph 73% 0.00 in
07:14 79.2 °F 69.8 °F 29.93 in SSE 5.8 mph 3.5 mph 73% 0.00 in
07:19 79.5 °F 70.1 °F 29.93 in South 3.5 mph 1.1 mph 73% 0.00 in
07:24 79.7 °F 69.9 °F 29.93 in SSE 4.6 mph 1.9 mph 72% 0.00 in
07:29 79.9 °F 70.1 °F 29.93 in South 3.5 mph 2.6 mph 72% 0.00 in
07:34 80.2 °F 69.9 °F 29.93 in South 2.3 mph 1.7 mph 71% 0.00 in
07:39 80.4 °F 70.1 °F 29.93 in SE 3.5 mph 1.4 mph 71% 0.00 in
07:44 80.7 °F 70.4 °F 29.93 in South 2.3 mph 2.1 mph 71% 0.00 in
07:49 80.9 °F 70.2 °F 29.94 in South 2.3 mph 1.5 mph 70% 0.00 in
07:54 81.1 °F 70.8 °F 29.94 in South 1.2 mph 0.2 mph 71% 0.00 in
07:59 81.4 °F 70.2 °F 29.94 in South 2.3 mph 0.9 mph 69% 0.00 in
08:04 81.8 °F 70.6 °F 29.94 in South 3.5 mph 0.4 mph 69% 0.00 in
08:09 82.1 °F 70.1 °F 29.94 in South 5.0 mph 1.9 mph 67% 0.00 in
08:14 82.5 °F 70.4 °F 29.94 in SSE 8.1 mph 3.6 mph 67% 0.00 in
08:19 82.8 °F 70.7 °F 29.95 in SSW 4.6 mph 2.0 mph 67% 0.00 in
08:24 83.0 °F 70.9 °F 29.95 in Calm     67% 0.00 in
08:29 83.3 °F 70.8 °F 29.95 in South 3.5 mph 2.2 mph 66% 0.00 in
08:34 83.5 °F 70.9 °F 29.95 in SSE 3.5 mph 1.6 mph 66% 0.00 in
08:39 83.8 °F 71.2 °F 29.95 in SSE 1.2 mph 0.4 mph 66% 0.00 in
08:44 84.1 °F 71.1 °F 29.95 in South 6.9 mph 3.8 mph 65% 0.00 in
08:49 84.3 °F 71.2 °F 29.96 in South 4.6 mph 1.9 mph 65% 0.00 in
08:54 84.5 °F 71.4 °F 29.96 in South 8.1 mph 3.2 mph 65% 0.00 in
08:59 84.6 °F 71.5 °F 29.95 in SSE 5.8 mph 3.3 mph 65% 0.00 in
09:04 84.9 °F 71.8 °F 29.95 in South 3.5 mph 1.5 mph 65% 0.00 in
09:09 85.2 °F 71.6 °F 29.95 in SSE 4.6 mph 2.0 mph 64% 0.00 in
09:14 85.4 °F 72.3 °F 29.95 in South 2.3 mph 0.8 mph 65% 0.00 in
09:19 85.7 °F 72.6 °F 29.96 in West 3.0 mph 1.8 mph 65% 0.00 in
09:23 86.0 °F 72.4 °F 29.96 in WSW 1.2 mph 0.2 mph 64% 0.00 in
09:29 86.4 °F 72.3 °F 29.96 in South 2.3 mph 0.3 mph 63% 0.00 in
09:34 86.6 °F 72.0 °F 29.96 in South 1.2 mph 1.3 mph 62% 0.00 in
09:39 86.5 °F 71.9 °F 29.96 in South 1.2 mph 2.8 mph 62% 0.00 in
09:44 86.9 °F 72.3 °F 29.95 in SSE 2.3 mph 3.5 mph 62% 0.00 in
09:49 87.3 °F 72.7 °F 29.95 in SSW 2.3 mph 1.9 mph 62% 0.00 in
09:54 87.7 °F 72.6 °F 29.95 in SSW 3.5 mph 1.6 mph 61% 0.00 in
09:59 88.1 °F 72.5 °F 29.96 in SE 5.8 mph 1.7 mph 60% 0.00 in
10:04 88.4 °F 72.2 °F 29.95 in SSW 4.6 mph 3.2 mph 59% 0.00 in
10:09 88.6 °F 72.9 °F 29.95 in SSW 3.5 mph 0.1 mph 60% 0.00 in
10:14 88.7 °F 73.0 °F 29.95 in SSW 4.0 mph 2.3 mph 60% 0.00 in
10:18 89.1 °F 72.9 °F 29.95 in South 1.2 mph 2.2 mph 59% 0.00 in
10:24 89.6 °F 72.3 °F 29.95 in South 5.8 mph 2.0 mph 57% 0.00 in
10:29 90.1 °F 72.3 °F 29.95 in South 2.3 mph 1.6 mph 56% 0.00 in
10:34 90.5 °F 72.7 °F 29.95 in South 3.5 mph 2.4 mph 56% 0.00 in
10:39 90.4 °F 73.1 °F 29.95 in West 3.5 mph 2.2 mph 57% 0.00 in
10:44 90.4 °F 72.6 °F 29.95 in South 3.5 mph 2.0 mph 56% 0.00 in
10:49 90.8 °F 72.4 °F 29.95 in SSW 5.8 mph 3.6 mph 55% 0.00 in
10:54 91.1 °F 73.2 °F 29.94 in SSE 3.5 mph 1.3 mph 56% 0.00 in
10:59 91.0 °F 72.6 °F 29.94 in South 3.5 mph 2.1 mph 55% 0.00 in
11:04 90.9 °F 72.5 °F 29.94 in South 5.8 mph 3.5 mph 55% 0.00 in
11:09 91.1 °F 72.7 °F 29.94 in SSW 5.0 mph 3.2 mph 55% 0.00 in
11:14 91.5 °F 73.6 °F 29.94 in South 8.0 mph 2.3 mph 56% 0.00 in
11:18 91.8 °F 72.8 °F 29.93 in South 4.6 mph 1.8 mph 54% 0.00 in
11:24 91.9 °F 72.3 °F 29.93 in SSW 11.5 mph 3.7 mph 53% 0.00 in
11:29 91.9 °F 72.3 °F 29.93 in SSW 3.5 mph 2.4 mph 53% 0.00 in
11:34 92.4 °F 71.6 °F 29.93 in South 6.9 mph 6.0 mph 51% 0.00 in
11:39 92.6 °F 72.4 °F 29.93 in SSW 6.9 mph 3.6 mph 52% 0.00 in
11:44 92.9 °F 72.7 °F 29.93 in SW 11.5 mph 3.3 mph 52% 0.00 in
11:49 92.8 °F 72.0 °F 29.93 in SSE 11.5 mph 4.3 mph 51% 0.00 in
11:54 93.0 °F 72.2 °F 29.94 in South 11.5 mph 5.0 mph 51% 0.00 in
11:59 92.9 °F 71.5 °F 29.93 in South 8.1 mph 2.1 mph 50% 0.00 in
12:04 93.1 °F 71.1 °F 29.94 in South 10.4 mph 4.6 mph 49% 0.00 in
12:09 93.1 °F 71.1 °F 29.93 in South 8.1 mph 3.3 mph 49% 0.00 in
12:14 93.4 °F 70.2 °F 29.93 in South 5.8 mph 5.3 mph 47% 0.00 in
12:19 93.8 °F 71.7 °F 29.93 in SSW 3.5 mph 1.6 mph 49% 0.00 in
12:24 94.0 °F 71.3 °F 29.93 in West 8.1 mph 2.4 mph 48% 0.00 in
12:29 94.5 °F 73.0 °F 29.93 in West 5.8 mph 2.3 mph 50% 0.00 in
12:34 94.4 °F 72.3 °F 29.93 in SSE 2.3 mph 1.8 mph 49% 0.00 in
12:39 94.5 °F 73.0 °F 29.93 in SE 4.6 mph 2.5 mph 50% 0.00 in
12:44 94.6 °F 71.2 °F 29.93 in SSW 9.2 mph 5.2 mph 47% 0.00 in
12:49 94.4 °F 71.1 °F 29.92 in ESE 9.2 mph 1.3 mph 47% 0.00 in
12:54 94.7 °F 71.3 °F 29.93 in South 3.5 mph 1.1 mph 47% 0.00 in
12:59 95.2 °F 71.8 °F 29.92 in South 3.5 mph 1.8 mph 47% 0.00 in
13:04 95.6 °F 70.2 °F 29.92 in SSW 3.5 mph 3.5 mph 44% 0.00 in
13:09 95.8 °F 71.1 °F 29.92 in NW 10.4 mph 5.9 mph 45% 0.00 in
13:14 96.0 °F 71.2 °F 29.92 in SSE 3.5 mph 1.3 mph 45% 0.00 in
13:19 95.8 °F 69.7 °F 29.92 in SE 4.6 mph 2.5 mph 43% 0.00 in
13:24 95.4 °F 69.4 °F 29.92 in SE 11.5 mph 4.6 mph 43% 0.00 in
13:29 95.1 °F 71.7 °F 29.92 in South 6.9 mph 1.6 mph 47% 0.00 in
13:34 95.7 °F 70.3 °F 29.92 in SW 9.2 mph 1.3 mph 44% 0.00 in
13:39 95.7 °F 68.2 °F 29.92 in ENE 11.5 mph 4.4 mph 41% 0.00 in
13:44 95.6 °F 69.5 °F 29.91 in SSE 6.9 mph 4.4 mph 43% 0.00 in
13:49 96.2 °F 70.7 °F 29.91 in SSW 3.5 mph 4.8 mph 44% 0.00 in
13:54 96.5 °F 69.7 °F 29.91 in SSE 5.8 mph 3.0 mph 42% 0.00 in
13:59 95.9 °F 68.4 °F 29.91 in South 6.9 mph 3.3 mph 41% 0.00 in
14:04 95.4 °F 69.4 °F 29.91 in SSE 10.4 mph 3.3 mph 43% 0.00 in
14:09 94.8 °F 68.8 °F 29.91 in South 5.8 mph 2.7 mph 43% 0.00 in
14:14 94.4 °F 69.1 °F 29.91 in South 8.1 mph 1.8 mph 44% 0.00 in
14:19 95.1 °F 70.4 °F 29.91 in SSE 8.1 mph 3.5 mph 45% 0.00 in
14:24 95.4 °F 70.0 °F 29.91 in SSE 3.5 mph 3.4 mph 44% 0.00 in
14:29 94.9 °F 69.6 °F 29.90 in SSW 9.2 mph 5.6 mph 44% 0.00 in
14:34 94.6 °F 70.0 °F 29.90 in ESE 4.6 mph 2.1 mph 45% 0.00 in
14:39 95.3 °F 69.3 °F 29.91 in SE 3.5 mph 3.1 mph 43% 0.00 in
14:44 95.9 °F 69.1 °F 29.90 in South 4.6 mph 1.7 mph 42% 0.00 in
14:49 96.1 °F 68.6 °F 29.90 in SE 18.4 mph 8.2 mph 41% 0.00 in
14:54 96.5 °F 68.2 °F 29.90 in SSW 4.0 mph 3.1 mph 40% 0.00 in
14:59 97.3 °F 68.2 °F 29.89 in South 6.9 mph 2.7 mph 39% 0.00 in
15:04 97.8 °F 68.6 °F 29.89 in SSW 3.5 mph 2.1 mph 39% 0.00 in
15:09 97.9 °F 69.5 °F 29.89 in SE 8.1 mph 2.6 mph 40% 0.00 in
15:14 97.4 °F 69.0 °F 29.89 in SW 11.5 mph 5.5 mph 40% 0.00 in
15:19 97.4 °F 69.0 °F 29.89 in South 3.5 mph 2.2 mph 40% 0.00 in
15:24 97.6 °F 68.5 °F 29.88 in SW 7.0 mph 4.1 mph 39% 0.00 in
15:29 97.7 °F 67.8 °F 29.88 in South 5.8 mph 3.0 mph 38% 0.00 in
15:34 98.2 °F 69.0 °F 29.88 in WNW 3.5 mph 1.4 mph 39% 0.00 in
15:39 98.7 °F 68.7 °F 29.88 in South 8.1 mph 3.9 mph 38% 0.00 in
15:44 98.4 °F 68.4 °F 29.87 in South 3.5 mph 2.6 mph 38% 0.00 in
15:49 98.2 °F 68.2 °F 29.87 in SSE 10.4 mph 5.0 mph 38% 0.00 in
15:54 97.8 °F 67.1 °F 29.87 in SSW 6.9 mph 3.9 mph 37% 0.00 in
15:59 97.3 °F 66.7 °F 29.86 in SSW 16.1 mph 7.7 mph 37% 0.00 in
16:04 96.8 °F 67.8 °F 29.86 in South 4.6 mph 2.8 mph 39% 0.00 in
16:09 96.9 °F 69.3 °F 29.86 in SSE 11.5 mph 3.5 mph 41% 0.00 in
16:14 96.9 °F 70.0 °F 29.86 in SSW 3.5 mph 3.3 mph 42% 0.00 in
16:19 96.9 °F 70.0 °F 29.86 in SSW 8.1 mph 5.4 mph 42% 0.00 in
16:24 96.8 °F 69.2 °F 29.86 in South 7.0 mph 3.0 mph 41% 0.00 in
16:29 97.2 °F 68.9 °F 29.86 in SSW 3.5 mph 1.4 mph 40% 0.00 in
16:34 97.3 °F 68.9 °F 29.86 in SSE 6.9 mph 3.6 mph 40% 0.00 in
16:39 96.9 °F 68.6 °F 29.86 in South 11.5 mph 8.4 mph 40% 0.00 in
16:44 96.4 °F 69.6 °F 29.86 in SSE 11.5 mph 5.9 mph 42% 0.00 in
16:49 95.9 °F 69.1 °F 29.85 in SSW 8.1 mph 4.4 mph 42% 0.00 in
16:54 96.3 °F 68.1 °F 29.85 in SSE 10.4 mph 3.2 mph 40% 0.00 in
16:59 96.5 °F 68.9 °F 29.85 in SSW 8.1 mph 6.5 mph 41% 0.00 in
17:04 96.2 °F 68.0 °F 29.85 in SSE 8.1 mph 5.3 mph 40% 0.00 in
17:09 96.1 °F 67.1 °F 29.85 in South 2.3 mph 2.6 mph 39% 0.00 in
17:14 96.3 °F 68.1 °F 29.85 in South 6.9 mph 2.6 mph 40% 0.00 in
17:19 96.3 °F 66.6 °F 29.85 in SSE 11.5 mph 5.0 mph 38% 0.00 in
17:24 96.1 °F 67.1 °F 29.85 in SSE 9.2 mph 2.4 mph 39% 0.00 in
17:28 96.0 °F 67.8 °F 29.85 in South 8.0 mph 4.3 mph 40% 0.00 in
17:34 95.6 °F 67.4 °F 29.85 in ESE 4.6 mph 3.3 mph 40% 0.00 in
17:39 95.6 °F 67.4 °F 29.85 in SSW 6.9 mph 5.2 mph 40% 0.00 in
17:44 95.5 °F 68.1 °F 29.84 in SSE 8.1 mph 3.4 mph 41% 0.00 in
17:49 95.4 °F 68.0 °F 29.84 in SSE 12.7 mph 3.7 mph 41% 0.00 in
17:54 95.4 °F 68.7 °F 29.84 in South 8.1 mph 5.8 mph 42% 0.00 in
17:59 95.4 °F 68.0 °F 29.84 in South 3.5 mph 2.1 mph 41% 0.00 in
18:04 95.5 °F 68.1 °F 29.84 in SSE 8.1 mph 2.5 mph 41% 0.00 in
18:09 95.3 °F 68.6 °F 29.84 in South 4.6 mph 1.0 mph 42% 0.00 in
18:14 95.0 °F 68.3 °F 29.85 in South 10.4 mph 4.8 mph 42% 0.00 in
18:19 94.8 °F 68.1 °F 29.85 in ESE 4.6 mph 1.7 mph 42% 0.00 in
18:24 94.7 °F 68.0 °F 29.85 in South 3.5 mph 2.9 mph 42% 0.00 in
18:29 94.5 °F 67.9 °F 29.86 in SSW 9.2 mph 2.4 mph 42% 0.00 in
18:34 94.4 °F 67.1 °F 29.86 in South 9.2 mph 6.1 mph 41% 0.00 in
18:39 94.2 °F 67.6 °F 29.86 in South 3.5 mph 0.9 mph 42% 0.00 in
18:44 94.3 °F 67.7 °F 29.86 in South 4.0 mph 2.5 mph 42% 0.00 in
18:49 94.1 °F 67.5 °F 29.86 in SSW 2.3 mph 0.9 mph 42% 0.00 in
18:54 94.0 °F 67.4 °F 29.86 in South 4.6 mph 2.5 mph 42% 0.00 in
18:59 93.6 °F 67.1 °F 29.86 in South 5.8 mph 3.7 mph 42% 0.00 in
19:04 93.4 °F 68.2 °F 29.86 in SW 2.3 mph 0.5 mph 44% 0.00 in
19:09 93.4 °F 67.6 °F 29.86 in South 8.1 mph 4.1 mph 43% 0.00 in
19:14 93.1 °F 67.3 °F 29.86 in SSE 10.4 mph 4.7 mph 43% 0.00 in
19:19 92.8 °F 67.0 °F 29.86 in South 2.3 mph 2.6 mph 43% 0.00 in
19:24 92.5 °F 66.7 °F 29.86 in SSW 4.6 mph 3.7 mph 43% 0.00 in
19:29 92.2 °F 66.5 °F 29.86 in South 8.1 mph 2.5 mph 43% 0.00 in
19:34 92.1 °F 66.4 °F 29.87 in SSW 3.5 mph 2.3 mph 43% 0.00 in
19:39 92.0 °F 67.0 °F 29.87 in South 6.9 mph 1.1 mph 44% 0.00 in
19:44 91.8 °F 67.4 °F 29.88 in SSW 5.0 mph 5.8 mph 45% 0.00 in
19:49 91.7 °F 67.3 °F 29.88 in South 3.5 mph 1.1 mph 45% 0.00 in
19:54 91.5 °F 67.8 °F 29.88 in SSE 5.0 mph 1.0 mph 46% 0.00 in
19:59 91.4 °F 67.7 °F 29.88 in South 4.6 mph 2.5 mph 46% 0.00 in
20:04 91.3 °F 68.2 °F 29.89 in South 2.3 mph 1.2 mph 47% 0.00 in
20:09 91.2 °F 68.2 °F 29.89 in South 1.2 mph 1.4 mph 47% 0.00 in
20:14 91.1 °F 68.1 °F 29.89 in SSW 3.5 mph 2.8 mph 47% 0.00 in
20:19 90.9 °F 67.9 °F 29.89 in SSE 6.9 mph 3.9 mph 47% 0.00 in
20:24 90.8 °F 68.4 °F 29.89 in South 3.5 mph 1.4 mph 48% 0.00 in
20:29 90.6 °F 68.2 °F 29.89 in South 4.6 mph 1.1 mph 48% 0.00 in
20:34 90.5 °F 68.1 °F 29.89 in South 3.5 mph 2.7 mph 48% 0.00 in
20:39 90.4 °F 68.0 °F 29.89 in SSW 1.2 mph 0.4 mph 48% 0.00 in
20:44 90.3 °F 67.9 °F 29.89 in South 3.5 mph 2.2 mph 48% 0.00 in
20:49 90.1 °F 67.8 °F 29.89 in South 3.5 mph 3.6 mph 48% 0.00 in
20:54 90.0 °F 68.3 °F 29.90 in SE 3.5 mph 0.2 mph 49% 0.00 in
20:59 89.8 °F 68.1 °F 29.90 in South 1.2 mph 1.1 mph 49% 0.00 in
21:04 89.6 °F 67.9 °F 29.90 in SE 4.6 mph 2.0 mph 49% 0.00 in
21:09 89.5 °F 67.8 °F 29.90 in SSW 4.6 mph 1.6 mph 49% 0.00 in
21:14 89.3 °F 68.2 °F 29.90 in SSE 4.6 mph 2.9 mph 50% 0.00 in
21:19 89.3 °F 68.2 °F 29.90 in SSW 4.6 mph 1.3 mph 50% 0.00 in
21:24 89.1 °F 68.0 °F 29.90 in South 2.3 mph 0.6 mph 50% 0.00 in
21:29 89.0 °F 68.5 °F 29.91 in South 1.2 mph   51% 0.00 in
21:34 88.9 °F 68.4 °F 29.91 in South 1.2 mph 0.3 mph 51% 0.00 in
21:38 88.8 °F 68.3 °F 29.91 in South 1.2 mph   51% 0.00 in
21:44 88.5 °F 69.2 °F 29.91 in SW 6.0 mph 2.7 mph 53% 0.00 in
21:49 87.9 °F 69.2 °F 29.92 in WNW 3.5 mph 0.9 mph 54% 0.00 in
21:54 87.3 °F 69.2 °F 29.92 in WNW 1.2 mph 1.1 mph 55% 0.00 in
21:59 86.8 °F 69.2 °F 29.92 in NNE 3.5 mph 3.4 mph 56% 0.00 in
22:04 86.1 °F 69.6 °F 29.92 in West 3.5 mph 1.2 mph 58% 0.00 in
22:09 85.4 °F 69.4 °F 29.93 in NNW 4.0 mph 2.3 mph 59% 0.00 in
22:14 84.5 °F 69.6 °F 29.93 in NNE 2.3 mph 1.6 mph 61% 0.00 in
22:19 83.9 °F 69.5 °F 29.93 in North 2.3 mph 1.9 mph 62% 0.00 in
22:24 83.4 °F 69.5 °F 29.93 in SSE 5.8 mph 2.1 mph 63% 0.00 in
22:29 83.3 °F 69.8 °F 29.93 in ENE 3.5 mph 2.0 mph 64% 0.00 in
22:34 82.9 °F 69.5 °F 29.93 in North 5.8 mph 1.7 mph 64% 0.00 in
22:39 82.6 °F 69.6 °F 29.93 in North 2.3 mph 0.7 mph 65% 0.00 in
22:44 82.2 °F 69.7 °F 29.93 in West 3.5 mph 1.7 mph 66% 0.00 in
22:49 82.0 °F 69.5 °F 29.93 in NNE 5.0 mph 1.7 mph 66% 0.00 in
22:54 81.7 °F 69.7 °F 29.93 in NNE 2.3 mph 1.3 mph 67% 0.00 in
22:59 81.4 °F 69.8 °F 29.93 in NE 4.6 mph 1.5 mph 68% 0.00 in
23:03 81.1 °F 69.5 °F 29.92 in Calm   0.3 mph 68% 0.00 in
23:09 80.7 °F 69.6 °F 29.92 in NNE 1.2 mph 0.7 mph 69% 0.00 in
23:14 80.6 °F 69.5 °F 29.92 in North 4.0 mph 1.9 mph 69% 0.00 in
23:19 80.4 °F 69.7 °F 29.91 in North 2.3 mph 1.7 mph 70% 0.00 in
23:24 80.2 °F 69.5 °F 29.91 in North 1.2 mph 0.4 mph 70% 0.00 in
23:29 80.1 °F 69.8 °F 29.92 in North 1.2 mph 0.4 mph 71% 0.00 in
23:34 80.1 °F 69.8 °F 29.92 in NE 2.3 mph 0.6 mph 71% 0.00 in
23:39 80.0 °F 69.7 °F 29.91 in NE 1.2 mph   71% 0.00 in
23:44 79.7 °F 69.9 °F 29.91 in NE 2.3 mph 1.2 mph 72% 0.00 in
23:49 79.6 °F 69.8 °F 29.91 in Calm     72% 0.00 in
23:54 79.4 °F 70.0 °F 29.91 in NE 2.3 mph 0.5 mph 73% 0.00 in
23:59 79.3 °F 69.9 °F 29.91 in Calm     73% 0.00 in
Live Lenexa Weather
Compliments of Weather Underground - 1.75 mb